sensor_id;sensor_type;location;lat;lon;timestamp;P1;durP1;ratioP1;P2;durP2;ratioP2
12912;SDS011;6524;51.368;11.984;2023-05-29T00:03:36;7.82;;;5.60;;
12912;SDS011;6524;51.368;11.984;2023-05-29T00:08:36;7.22;;;5.07;;
12912;SDS011;6524;51.368;11.984;2023-05-29T00:13:39;6.93;;;5.18;;
12912;SDS011;6524;51.368;11.984;2023-05-29T00:18:40;7.47;;;5.20;;
12912;SDS011;6524;51.368;11.984;2023-05-29T00:23:45;6.65;;;5.00;;
12912;SDS011;6524;51.368;11.984;2023-05-29T00:28:45;6.57;;;5.07;;
12912;SDS011;6524;51.368;11.984;2023-05-29T00:33:45;6.43;;;5.15;;
12912;SDS011;6524;51.368;11.984;2023-05-29T00:38:46;7.15;;;4.95;;
12912;SDS011;6524;51.368;11.984;2023-05-29T00:43:46;7.70;;;5.30;;
12912;SDS011;6524;51.368;11.984;2023-05-29T00:48:47;7.32;;;5.03;;
12912;SDS011;6524;51.368;11.984;2023-05-29T00:53:47;5.80;;;4.90;;
12912;SDS011;6524;51.368;11.984;2023-05-29T00:58:51;7.85;;;5.70;;
12912;SDS011;6524;51.368;11.984;2023-05-29T01:03:53;7.72;;;5.18;;
12912;SDS011;6524;51.368;11.984;2023-05-29T01:09:03;6.75;;;5.13;;
12912;SDS011;6524;51.368;11.984;2023-05-29T01:14:06;7.97;;;5.50;;
12912;SDS011;6524;51.368;11.984;2023-05-29T01:24:26;5.63;;;5.00;;
12912;SDS011;6524;51.368;11.984;2023-05-29T01:29:37;6.50;;;5.57;;
12912;SDS011;6524;51.368;11.984;2023-05-29T01:34:39;8.20;;;4.70;;
12912;SDS011;6524;51.368;11.984;2023-05-29T01:39:40;7.00;;;5.13;;
12912;SDS011;6524;51.368;11.984;2023-05-29T01:44:40;8.68;;;5.20;;
12912;SDS011;6524;51.368;11.984;2023-05-29T01:49:41;8.25;;;5.03;;
12912;SDS011;6524;51.368;11.984;2023-05-29T01:54:43;5.93;;;4.90;;
12912;SDS011;6524;51.368;11.984;2023-05-29T01:59:46;6.57;;;5.00;;
12912;SDS011;6524;51.368;11.984;2023-05-29T02:04:47;5.65;;;4.70;;
12912;SDS011;6524;51.368;11.984;2023-05-29T02:09:48;7.55;;;4.90;;
12912;SDS011;6524;51.368;11.984;2023-05-29T02:14:48;7.03;;;5.30;;
12912;SDS011;6524;51.368;11.984;2023-05-29T02:19:49;6.63;;;5.23;;
12912;SDS011;6524;51.368;11.984;2023-05-29T02:24:49;6.77;;;4.60;;
12912;SDS011;6524;51.368;11.984;2023-05-29T02:29:50;6.93;;;4.90;;
12912;SDS011;6524;51.368;11.984;2023-05-29T02:34:51;7.00;;;5.25;;
12912;SDS011;6524;51.368;11.984;2023-05-29T02:39:54;7.10;;;4.90;;
12912;SDS011;6524;51.368;11.984;2023-05-29T02:44:55;5.83;;;4.57;;
12912;SDS011;6524;51.368;11.984;2023-05-29T02:49:55;7.27;;;5.00;;
12912;SDS011;6524;51.368;11.984;2023-05-29T02:54:55;7.03;;;5.10;;
12912;SDS011;6524;51.368;11.984;2023-05-29T02:59:56;7.47;;;5.03;;
12912;SDS011;6524;51.368;11.984;2023-05-29T03:04:56;8.20;;;4.90;;
12912;SDS011;6524;51.368;11.984;2023-05-29T03:09:59;8.77;;;5.40;;
12912;SDS011;6524;51.368;11.984;2023-05-29T03:15:01;8.30;;;5.27;;
12912;SDS011;6524;51.368;11.984;2023-05-29T03:20:01;10.43;;;5.87;;
12912;SDS011;6524;51.368;11.984;2023-05-29T03:25:06;7.70;;;5.37;;
12912;SDS011;6524;51.368;11.984;2023-05-29T03:30:06;8.37;;;6.07;;
12912;SDS011;6524;51.368;11.984;2023-05-29T03:35:07;8.80;;;6.00;;
12912;SDS011;6524;51.368;11.984;2023-05-29T03:40:08;9.37;;;5.97;;
12912;SDS011;6524;51.368;11.984;2023-05-29T03:45:09;12.30;;;6.28;;
12912;SDS011;6524;51.368;11.984;2023-05-29T03:50:10;9.45;;;6.43;;
12912;SDS011;6524;51.368;11.984;2023-05-29T03:55:12;8.60;;;5.95;;
12912;SDS011;6524;51.368;11.984;2023-05-29T04:00:14;8.38;;;5.38;;
12912;SDS011;6524;51.368;11.984;2023-05-29T04:05:14;8.77;;;5.63;;
12912;SDS011;6524;51.368;11.984;2023-05-29T04:10:15;9.23;;;5.90;;
12912;SDS011;6524;51.368;11.984;2023-05-29T04:15:16;10.13;;;5.90;;
12912;SDS011;6524;51.368;11.984;2023-05-29T04:20:16;10.68;;;5.78;;
12912;SDS011;6524;51.368;11.984;2023-05-29T04:25:17;9.88;;;5.72;;
12912;SDS011;6524;51.368;11.984;2023-05-29T04:30:18;11.95;;;6.13;;
12912;SDS011;6524;51.368;11.984;2023-05-29T04:35:18;8.07;;;5.35;;
12912;SDS011;6524;51.368;11.984;2023-05-29T04:40:18;9.43;;;6.05;;
12912;SDS011;6524;51.368;11.984;2023-05-29T04:45:20;8.80;;;5.97;;
12912;SDS011;6524;51.368;11.984;2023-05-29T04:50:21;10.27;;;6.03;;
12912;SDS011;6524;51.368;11.984;2023-05-29T04:55:23;8.68;;;6.05;;
12912;SDS011;6524;51.368;11.984;2023-05-29T05:00:23;9.52;;;6.25;;
12912;SDS011;6524;51.368;11.984;2023-05-29T05:05:25;8.60;;;6.00;;
12912;SDS011;6524;51.368;11.984;2023-05-29T05:10:25;9.02;;;6.18;;
12912;SDS011;6524;51.368;11.984;2023-05-29T05:15:26;9.90;;;6.28;;
12912;SDS011;6524;51.368;11.984;2023-05-29T05:20:26;9.48;;;5.85;;
12912;SDS011;6524;51.368;11.984;2023-05-29T05:25:26;9.77;;;6.32;;
12912;SDS011;6524;51.368;11.984;2023-05-29T05:30:28;8.70;;;6.22;;
12912;SDS011;6524;51.368;11.984;2023-05-29T05:35:33;13.27;;;5.88;;
12912;SDS011;6524;51.368;11.984;2023-05-29T05:40:35;9.70;;;5.57;;
12912;SDS011;6524;51.368;11.984;2023-05-29T05:45:36;11.00;;;5.93;;
12912;SDS011;6524;51.368;11.984;2023-05-29T05:50:42;10.75;;;5.90;;
12912;SDS011;6524;51.368;11.984;2023-05-29T05:55:42;10.85;;;6.03;;
12912;SDS011;6524;51.368;11.984;2023-05-29T06:00:44;9.20;;;5.50;;
12912;SDS011;6524;51.368;11.984;2023-05-29T06:05:44;8.55;;;5.60;;
12912;SDS011;6524;51.368;11.984;2023-05-29T06:10:44;8.80;;;5.53;;
12912;SDS011;6524;51.368;11.984;2023-05-29T06:15:50;8.77;;;5.78;;
12912;SDS011;6524;51.368;11.984;2023-05-29T06:20:51;9.60;;;5.93;;
12912;SDS011;6524;51.368;11.984;2023-05-29T06:25:51;8.80;;;6.18;;
12912;SDS011;6524;51.368;11.984;2023-05-29T06:30:55;8.88;;;5.90;;
12912;SDS011;6524;51.368;11.984;2023-05-29T06:35:56;8.05;;;5.63;;
12912;SDS011;6524;51.368;11.984;2023-05-29T06:40:56;9.30;;;5.73;;
12912;SDS011;6524;51.368;11.984;2023-05-29T06:45:57;9.75;;;5.70;;
12912;SDS011;6524;51.368;11.984;2023-05-29T06:50:57;8.02;;;5.38;;
12912;SDS011;6524;51.368;11.984;2023-05-29T06:55:57;10.05;;;5.50;;
12912;SDS011;6524;51.368;11.984;2023-05-29T07:00:59;6.45;;;4.95;;
12912;SDS011;6524;51.368;11.984;2023-05-29T07:06:00;7.75;;;4.93;;
12912;SDS011;6524;51.368;11.984;2023-05-29T07:11:01;8.18;;;5.70;;
12912;SDS011;6524;51.368;11.984;2023-05-29T07:16:02;9.15;;;5.55;;
12912;SDS011;6524;51.368;11.984;2023-05-29T07:21:07;6.93;;;5.30;;
12912;SDS011;6524;51.368;11.984;2023-05-29T07:26:08;7.95;;;5.22;;
12912;SDS011;6524;51.368;11.984;2023-05-29T07:31:11;8.65;;;5.25;;
12912;SDS011;6524;51.368;11.984;2023-05-29T07:36:11;8.00;;;5.03;;
12912;SDS011;6524;51.368;11.984;2023-05-29T07:41:14;7.68;;;4.70;;
12912;SDS011;6524;51.368;11.984;2023-05-29T07:46:15;8.25;;;4.88;;
12912;SDS011;6524;51.368;11.984;2023-05-29T07:51:16;7.40;;;4.95;;
12912;SDS011;6524;51.368;11.984;2023-05-29T07:56:17;6.95;;;5.05;;
12912;SDS011;6524;51.368;11.984;2023-05-29T08:01:18;8.80;;;4.90;;
12912;SDS011;6524;51.368;11.984;2023-05-29T08:06:19;7.53;;;5.18;;
12912;SDS011;6524;51.368;11.984;2023-05-29T08:11:21;6.70;;;5.10;;
12912;SDS011;6524;51.368;11.984;2023-05-29T08:16:22;6.22;;;4.80;;
12912;SDS011;6524;51.368;11.984;2023-05-29T08:21:23;5.65;;;4.38;;
12912;SDS011;6524;51.368;11.984;2023-05-29T08:26:24;5.88;;;4.95;;
12912;SDS011;6524;51.368;11.984;2023-05-29T08:31:24;6.32;;;4.80;;
12912;SDS011;6524;51.368;11.984;2023-05-29T08:36:29;5.80;;;4.47;;
12912;SDS011;6524;51.368;11.984;2023-05-29T08:41:37;6.50;;;4.47;;
12912;SDS011;6524;51.368;11.984;2023-05-29T08:46:52;6.28;;;4.45;;
12912;SDS011;6524;51.368;11.984;2023-05-29T08:51:57;6.97;;;4.43;;
12912;SDS011;6524;51.368;11.984;2023-05-29T08:57:07;6.70;;;4.57;;
12912;SDS011;6524;51.368;11.984;2023-05-29T09:02:09;7.10;;;4.70;;
12912;SDS011;6524;51.368;11.984;2023-05-29T09:07:15;5.07;;;4.35;;
12912;SDS011;6524;51.368;11.984;2023-05-29T09:12:17;7.05;;;4.50;;
12912;SDS011;6524;51.368;11.984;2023-05-29T09:17:17;6.28;;;4.53;;
12912;SDS011;6524;51.368;11.984;2023-05-29T09:22:18;5.72;;;4.22;;
12912;SDS011;6524;51.368;11.984;2023-05-29T09:27:19;5.35;;;4.47;;
12912;SDS011;6524;51.368;11.984;2023-05-29T09:32:20;4.97;;;4.03;;
12912;SDS011;6524;51.368;11.984;2023-05-29T09:37:23;5.97;;;4.20;;
12912;SDS011;6524;51.368;11.984;2023-05-29T09:42:24;5.50;;;4.18;;
12912;SDS011;6524;51.368;11.984;2023-05-29T09:47:24;5.40;;;4.13;;
12912;SDS011;6524;51.368;11.984;2023-05-29T09:52:26;4.68;;;3.88;;
12912;SDS011;6524;51.368;11.984;2023-05-29T09:57:30;5.18;;;4.40;;
12912;SDS011;6524;51.368;11.984;2023-05-29T10:02:31;8.20;;;4.40;;
12912;SDS011;6524;51.368;11.984;2023-05-29T10:07:32;5.68;;;4.00;;
12912;SDS011;6524;51.368;11.984;2023-05-29T10:12:37;5.18;;;4.05;;
12912;SDS011;6524;51.368;11.984;2023-05-29T10:17:39;6.57;;;4.20;;
12912;SDS011;6524;51.368;11.984;2023-05-29T10:23:02;5.38;;;4.25;;
12912;SDS011;6524;51.368;11.984;2023-05-29T10:28:04;4.70;;;4.20;;
12912;SDS011;6524;51.368;11.984;2023-05-29T10:38:32;5.50;;;3.88;;
12912;SDS011;6524;51.368;11.984;2023-05-29T10:43:34;5.10;;;3.95;;
12912;SDS011;6524;51.368;11.984;2023-05-29T10:53:40;4.20;;;3.80;;
12912;SDS011;6524;51.368;11.984;2023-05-29T10:58:42;5.45;;;3.90;;
12912;SDS011;6524;51.368;11.984;2023-05-29T11:03:42;6.60;;;3.92;;
12912;SDS011;6524;51.368;11.984;2023-05-29T11:08:44;4.68;;;4.00;;
12912;SDS011;6524;51.368;11.984;2023-05-29T11:13:54;4.43;;;3.92;;
12912;SDS011;6524;51.368;11.984;2023-05-29T11:18:57;6.05;;;4.03;;
12912;SDS011;6524;51.368;11.984;2023-05-29T11:23:59;4.40;;;3.83;;
12912;SDS011;6524;51.368;11.984;2023-05-29T11:29:08;6.65;;;3.92;;
12912;SDS011;6524;51.368;11.984;2023-05-29T11:34:13;5.30;;;3.80;;
12912;SDS011;6524;51.368;11.984;2023-05-29T11:39:15;5.20;;;4.00;;
12912;SDS011;6524;51.368;11.984;2023-05-29T11:44:15;4.90;;;3.72;;
12912;SDS011;6524;51.368;11.984;2023-05-29T11:49:27;6.57;;;4.40;;
12912;SDS011;6524;51.368;11.984;2023-05-29T11:54:28;4.28;;;3.88;;
12912;SDS011;6524;51.368;11.984;2023-05-29T11:59:32;6.85;;;4.03;;
12912;SDS011;6524;51.368;11.984;2023-05-29T12:04:33;6.50;;;4.25;;
12912;SDS011;6524;51.368;11.984;2023-05-29T12:09:35;4.95;;;3.72;;
12912;SDS011;6524;51.368;11.984;2023-05-29T12:14:36;5.20;;;4.22;;
12912;SDS011;6524;51.368;11.984;2023-05-29T12:19:36;4.70;;;4.00;;
12912;SDS011;6524;51.368;11.984;2023-05-29T12:24:37;7.35;;;4.03;;
12912;SDS011;6524;51.368;11.984;2023-05-29T12:29:38;4.95;;;4.10;;
12912;SDS011;6524;51.368;11.984;2023-05-29T12:34:38;4.53;;;4.10;;
12912;SDS011;6524;51.368;11.984;2023-05-29T12:39:40;4.95;;;4.07;;
12912;SDS011;6524;51.368;11.984;2023-05-29T12:44:41;4.55;;;3.78;;
12912;SDS011;6524;51.368;11.984;2023-05-29T12:49:42;4.20;;;3.80;;
12912;SDS011;6524;51.368;11.984;2023-05-29T12:54:42;5.28;;;3.80;;
12912;SDS011;6524;51.368;11.984;2023-05-29T12:59:43;5.00;;;3.75;;
12912;SDS011;6524;51.368;11.984;2023-05-29T13:04:46;5.43;;;3.92;;
12912;SDS011;6524;51.368;11.984;2023-05-29T13:09:46;4.78;;;3.58;;
12912;SDS011;6524;51.368;11.984;2023-05-29T13:14:47;4.90;;;3.95;;
12912;SDS011;6524;51.368;11.984;2023-05-29T13:19:48;8.18;;;5.57;;
12912;SDS011;6524;51.368;11.984;2023-05-29T13:24:49;5.07;;;3.90;;
12912;SDS011;6524;51.368;11.984;2023-05-29T13:29:49;5.32;;;3.97;;
12912;SDS011;6524;51.368;11.984;2023-05-29T13:34:50;4.88;;;3.70;;
12912;SDS011;6524;51.368;11.984;2023-05-29T13:39:51;4.00;;;3.60;;
12912;SDS011;6524;51.368;11.984;2023-05-29T13:44:52;4.57;;;4.10;;
12912;SDS011;6524;51.368;11.984;2023-05-29T13:49:53;5.60;;;4.03;;
12912;SDS011;6524;51.368;11.984;2023-05-29T13:54:54;5.50;;;4.05;;
12912;SDS011;6524;51.368;11.984;2023-05-29T13:59:54;4.63;;;3.78;;
12912;SDS011;6524;51.368;11.984;2023-05-29T14:04:55;5.55;;;3.95;;
12912;SDS011;6524;51.368;11.984;2023-05-29T14:09:56;4.57;;;3.90;;
12912;SDS011;6524;51.368;11.984;2023-05-29T14:14:57;4.70;;;4.03;;
12912;SDS011;6524;51.368;11.984;2023-05-29T14:20:00;4.13;;;3.58;;
12912;SDS011;6524;51.368;11.984;2023-05-29T14:25:04;5.43;;;3.58;;
12912;SDS011;6524;51.368;11.984;2023-05-29T14:30:05;4.75;;;3.90;;
12912;SDS011;6524;51.368;11.984;2023-05-29T14:35:06;5.78;;;3.88;;
12912;SDS011;6524;51.368;11.984;2023-05-29T14:40:08;5.55;;;4.00;;
12912;SDS011;6524;51.368;11.984;2023-05-29T14:45:09;5.38;;;4.10;;
12912;SDS011;6524;51.368;11.984;2023-05-29T14:50:10;5.15;;;3.92;;
12912;SDS011;6524;51.368;11.984;2023-05-29T14:55:11;6.03;;;3.97;;
12912;SDS011;6524;51.368;11.984;2023-05-29T15:00:12;4.78;;;4.05;;
12912;SDS011;6524;51.368;11.984;2023-05-29T15:05:14;5.13;;;3.78;;
12912;SDS011;6524;51.368;11.984;2023-05-29T15:10:15;5.00;;;3.88;;
12912;SDS011;6524;51.368;11.984;2023-05-29T15:15:20;5.35;;;4.10;;
12912;SDS011;6524;51.368;11.984;2023-05-29T15:20:22;5.32;;;4.13;;
12912;SDS011;6524;51.368;11.984;2023-05-29T15:25:25;4.60;;;4.07;;
12912;SDS011;6524;51.368;11.984;2023-05-29T15:30:26;6.30;;;4.07;;
12912;SDS011;6524;51.368;11.984;2023-05-29T15:35:26;5.72;;;4.10;;
12912;SDS011;6524;51.368;11.984;2023-05-29T15:40:27;4.38;;;3.97;;
12912;SDS011;6524;51.368;11.984;2023-05-29T15:45:28;5.18;;;4.00;;
12912;SDS011;6524;51.368;11.984;2023-05-29T15:50:34;5.90;;;4.32;;
12912;SDS011;6524;51.368;11.984;2023-05-29T15:55:47;5.93;;;4.20;;
12912;SDS011;6524;51.368;11.984;2023-05-29T16:00:51;6.20;;;4.20;;
12912;SDS011;6524;51.368;11.984;2023-05-29T16:05:52;5.20;;;4.30;;
12912;SDS011;6524;51.368;11.984;2023-05-29T16:10:53;6.18;;;5.13;;
12912;SDS011;6524;51.368;11.984;2023-05-29T16:15:53;5.63;;;3.95;;
12912;SDS011;6524;51.368;11.984;2023-05-29T16:20:54;5.57;;;4.20;;
12912;SDS011;6524;51.368;11.984;2023-05-29T16:26:03;7.30;;;4.38;;
12912;SDS011;6524;51.368;11.984;2023-05-29T16:31:06;6.18;;;3.80;;
12912;SDS011;6524;51.368;11.984;2023-05-29T16:36:07;5.72;;;4.30;;
12912;SDS011;6524;51.368;11.984;2023-05-29T16:41:08;4.78;;;4.28;;
12912;SDS011;6524;51.368;11.984;2023-05-29T16:46:08;4.93;;;3.95;;
12912;SDS011;6524;51.368;11.984;2023-05-29T16:51:09;5.72;;;4.07;;
12912;SDS011;6524;51.368;11.984;2023-05-29T16:56:10;5.05;;;4.03;;
12912;SDS011;6524;51.368;11.984;2023-05-29T17:01:19;5.88;;;4.20;;
12912;SDS011;6524;51.368;11.984;2023-05-29T17:06:21;5.70;;;3.88;;
12912;SDS011;6524;51.368;11.984;2023-05-29T17:11:21;5.22;;;3.85;;
12912;SDS011;6524;51.368;11.984;2023-05-29T17:16:22;5.20;;;4.30;;
12912;SDS011;6524;51.368;11.984;2023-05-29T17:21:23;7.05;;;3.92;;
12912;SDS011;6524;51.368;11.984;2023-05-29T17:26:23;3.85;;;3.45;;
12912;SDS011;6524;51.368;11.984;2023-05-29T17:31:24;6.05;;;3.80;;
12912;SDS011;6524;51.368;11.984;2023-05-29T17:36:25;5.88;;;3.97;;
12912;SDS011;6524;51.368;11.984;2023-05-29T17:41:25;5.22;;;3.38;;
12912;SDS011;6524;51.368;11.984;2023-05-29T17:46:28;6.72;;;4.20;;
12912;SDS011;6524;51.368;11.984;2023-05-29T17:51:29;4.07;;;3.67;;
12912;SDS011;6524;51.368;11.984;2023-05-29T17:56:31;5.20;;;3.60;;
12912;SDS011;6524;51.368;11.984;2023-05-29T18:01:33;5.65;;;4.20;;
12912;SDS011;6524;51.368;11.984;2023-05-29T18:06:33;5.97;;;3.75;;
12912;SDS011;6524;51.368;11.984;2023-05-29T18:11:35;5.60;;;3.72;;
12912;SDS011;6524;51.368;11.984;2023-05-29T18:16:36;4.32;;;3.60;;
12912;SDS011;6524;51.368;11.984;2023-05-29T18:21:40;6.10;;;3.58;;
12912;SDS011;6524;51.368;11.984;2023-05-29T18:26:41;6.25;;;3.65;;
12912;SDS011;6524;51.368;11.984;2023-05-29T18:31:43;5.90;;;3.45;;
12912;SDS011;6524;51.368;11.984;2023-05-29T18:36:43;5.38;;;3.67;;
12912;SDS011;6524;51.368;11.984;2023-05-29T18:41:44;6.22;;;3.60;;
12912;SDS011;6524;51.368;11.984;2023-05-29T18:46:45;6.82;;;3.42;;
12912;SDS011;6524;51.368;11.984;2023-05-29T18:51:46;5.68;;;3.42;;
12912;SDS011;6524;51.368;11.984;2023-05-29T18:56:47;4.50;;;3.47;;
12912;SDS011;6524;51.368;11.984;2023-05-29T19:01:48;5.70;;;3.22;;
12912;SDS011;6524;51.368;11.984;2023-05-29T19:06:48;6.57;;;3.30;;
12912;SDS011;6524;51.368;11.984;2023-05-29T19:11:49;4.97;;;3.30;;
12912;SDS011;6524;51.368;11.984;2023-05-29T19:16:50;6.43;;;3.47;;
12912;SDS011;6524;51.368;11.984;2023-05-29T19:21:51;5.13;;;3.53;;
12912;SDS011;6524;51.368;11.984;2023-05-29T19:26:52;5.82;;;3.50;;
12912;SDS011;6524;51.368;11.984;2023-05-29T19:31:54;5.53;;;3.40;;
12912;SDS011;6524;51.368;11.984;2023-05-29T19:36:54;3.47;;;2.97;;
12912;SDS011;6524;51.368;11.984;2023-05-29T19:41:55;4.07;;;2.75;;
12912;SDS011;6524;51.368;11.984;2023-05-29T19:46:56;5.72;;;3.20;;
12912;SDS011;6524;51.368;11.984;2023-05-29T19:51:56;6.28;;;3.33;;
12912;SDS011;6524;51.368;11.984;2023-05-29T19:57:02;6.32;;;3.30;;
12912;SDS011;6524;51.368;11.984;2023-05-29T20:02:04;4.72;;;3.17;;
12912;SDS011;6524;51.368;11.984;2023-05-29T20:07:06;5.22;;;3.08;;
12912;SDS011;6524;51.368;11.984;2023-05-29T20:12:07;6.07;;;3.40;;
12912;SDS011;6524;51.368;11.984;2023-05-29T20:17:07;5.78;;;3.30;;
12912;SDS011;6524;51.368;11.984;2023-05-29T20:22:08;5.32;;;3.10;;
12912;SDS011;6524;51.368;11.984;2023-05-29T20:27:09;5.32;;;3.00;;
12912;SDS011;6524;51.368;11.984;2023-05-29T20:32:10;4.68;;;2.97;;
12912;SDS011;6524;51.368;11.984;2023-05-29T20:37:11;5.10;;;3.15;;
12912;SDS011;6524;51.368;11.984;2023-05-29T20:47:15;3.78;;;2.95;;
12912;SDS011;6524;51.368;11.984;2023-05-29T20:52:16;6.05;;;3.13;;
12912;SDS011;6524;51.368;11.984;2023-05-29T20:57:17;4.78;;;3.33;;
12912;SDS011;6524;51.368;11.984;2023-05-29T21:02:17;4.97;;;3.15;;
12912;SDS011;6524;51.368;11.984;2023-05-29T21:07:18;4.97;;;3.30;;
12912;SDS011;6524;51.368;11.984;2023-05-29T21:12:19;5.35;;;3.42;;
12912;SDS011;6524;51.368;11.984;2023-05-29T21:17:19;6.57;;;3.75;;
12912;SDS011;6524;51.368;11.984;2023-05-29T21:22:21;5.18;;;3.30;;
12912;SDS011;6524;51.368;11.984;2023-05-29T21:27:22;4.18;;;2.90;;
12912;SDS011;6524;51.368;11.984;2023-05-29T21:32:23;5.20;;;3.53;;
12912;SDS011;6524;51.368;11.984;2023-05-29T21:37:28;7.05;;;3.75;;
12912;SDS011;6524;51.368;11.984;2023-05-29T21:42:28;5.90;;;3.50;;
12912;SDS011;6524;51.368;11.984;2023-05-29T21:47:29;4.95;;;3.50;;
12912;SDS011;6524;51.368;11.984;2023-05-29T21:52:30;5.47;;;3.70;;
12912;SDS011;6524;51.368;11.984;2023-05-29T21:57:31;7.80;;;4.25;;
12912;SDS011;6524;51.368;11.984;2023-05-29T22:02:32;5.13;;;4.30;;
12912;SDS011;6524;51.368;11.984;2023-05-29T22:07:33;5.38;;;3.60;;
12912;SDS011;6524;51.368;11.984;2023-05-29T22:12:33;5.22;;;3.17;;
12912;SDS011;6524;51.368;11.984;2023-05-29T22:17:37;4.97;;;3.22;;
12912;SDS011;6524;51.368;11.984;2023-05-29T22:22:38;6.05;;;3.45;;
12912;SDS011;6524;51.368;11.984;2023-05-29T22:27:39;5.93;;;3.55;;
12912;SDS011;6524;51.368;11.984;2023-05-29T22:32:40;4.85;;;3.17;;
12912;SDS011;6524;51.368;11.984;2023-05-29T22:37:41;5.85;;;3.22;;
12912;SDS011;6524;51.368;11.984;2023-05-29T22:42:42;5.72;;;3.20;;
12912;SDS011;6524;51.368;11.984;2023-05-29T22:47:43;5.30;;;3.00;;
12912;SDS011;6524;51.368;11.984;2023-05-29T22:52:44;6.15;;;2.70;;
12912;SDS011;6524;51.368;11.984;2023-05-29T22:57:45;5.18;;;2.83;;
12912;SDS011;6524;51.368;11.984;2023-05-29T23:02:48;5.00;;;2.88;;
12912;SDS011;6524;51.368;11.984;2023-05-29T23:07:50;4.32;;;2.50;;
12912;SDS011;6524;51.368;11.984;2023-05-29T23:12:52;4.43;;;2.58;;
12912;SDS011;6524;51.368;11.984;2023-05-29T23:17:55;4.53;;;2.70;;
12912;SDS011;6524;51.368;11.984;2023-05-29T23:22:56;4.65;;;2.70;;
12912;SDS011;6524;51.368;11.984;2023-05-29T23:27:57;3.85;;;2.50;;
12912;SDS011;6524;51.368;11.984;2023-05-29T23:32:58;4.47;;;2.50;;
12912;SDS011;6524;51.368;11.984;2023-05-29T23:37:58;4.38;;;2.60;;
12912;SDS011;6524;51.368;11.984;2023-05-29T23:43:00;4.25;;;2.63;;
12912;SDS011;6524;51.368;11.984;2023-05-29T23:48:00;5.53;;;2.50;;
12912;SDS011;6524;51.368;11.984;2023-05-29T23:53:01;3.88;;;2.55;;
12912;SDS011;6524;51.368;11.984;2023-05-29T23:58:02;5.03;;;2.50;;
